Terminal Aerodrome Forecast
Issued by NWS

Home | Current Version | Previous Version | Text Only | Print | Product List | Glossary On
Versions: 1 2 3 4 5 6 7 8 9 10 11 12
000
FTUS41 KBTV 211725
TAFMPV
TAF
KMPV 211725Z 2118/2218 17009KT P6SM BKN200
     FM220100 17008KT P6SM BKN140
     FM220300 18005KT P6SM VCSH BKN050 OVC080
     FM221200 18004KT P6SM BKN040=

USA.gov is the U.S. government's official web portal to all federal, state and local government web resources and services.